sensor_id;sensor_type;location;lat;lon;timestamp;P1;durP1;ratioP1;P2;durP2;ratioP2
15194;SDS011;7698;42.478;23.756;2023-01-08T00:01:12;17.60;;;15.90;;
15194;SDS011;7698;42.478;23.756;2023-01-08T00:03:39;16.87;;;15.27;;
15194;SDS011;7698;42.478;23.756;2023-01-08T00:06:07;16.20;;;14.67;;
15194;SDS011;7698;42.478;23.756;2023-01-08T00:08:37;20.53;;;18.53;;
15194;SDS011;7698;42.478;23.756;2023-01-08T00:11:03;18.83;;;17.03;;
15194;SDS011;7698;42.478;23.756;2023-01-08T00:13:30;20.00;;;18.10;;
15194;SDS011;7698;42.478;23.756;2023-01-08T00:16:01;19.60;;;17.57;;
15194;SDS011;7698;42.478;23.756;2023-01-08T00:18:30;16.70;;;15.10;;
15194;SDS011;7698;42.478;23.756;2023-01-08T00:20:58;15.73;;;14.23;;
15194;SDS011;7698;42.478;23.756;2023-01-08T00:23:25;16.60;;;14.90;;
15194;SDS011;7698;42.478;23.756;2023-01-08T00:25:52;15.43;;;13.93;;
15194;SDS011;7698;42.478;23.756;2023-01-08T00:28:19;19.33;;;17.47;;
15194;SDS011;7698;42.478;23.756;2023-01-08T00:30:46;18.90;;;16.97;;
15194;SDS011;7698;42.478;23.756;2023-01-08T00:33:13;17.13;;;14.97;;
15194;SDS011;7698;42.478;23.756;2023-01-08T00:35:41;18.43;;;16.57;;
15194;SDS011;7698;42.478;23.756;2023-01-08T00:38:08;14.70;;;13.30;;
15194;SDS011;7698;42.478;23.756;2023-01-08T00:40:35;20.17;;;17.27;;
15194;SDS011;7698;42.478;23.756;2023-01-08T00:43:04;19.50;;;17.67;;
15194;SDS011;7698;42.478;23.756;2023-01-08T00:45:31;18.13;;;16.33;;
15194;SDS011;7698;42.478;23.756;2023-01-08T00:47:58;17.10;;;15.40;;
15194;SDS011;7698;42.478;23.756;2023-01-08T00:50:25;19.87;;;17.83;;
15194;SDS011;7698;42.478;23.756;2023-01-08T00:52:54;24.57;;;22.00;;
15194;SDS011;7698;42.478;23.756;2023-01-08T00:55:20;25.80;;;23.17;;
15194;SDS011;7698;42.478;23.756;2023-01-08T00:57:47;31.27;;;28.10;;
15194;SDS011;7698;42.478;23.756;2023-01-08T01:00:14;28.43;;;25.63;;
15194;SDS011;7698;42.478;23.756;2023-01-08T01:02:42;27.77;;;24.97;;
15194;SDS011;7698;42.478;23.756;2023-01-08T01:05:09;23.40;;;21.13;;
15194;SDS011;7698;42.478;23.756;2023-01-08T01:07:39;23.97;;;21.57;;
15194;SDS011;7698;42.478;23.756;2023-01-08T01:10:08;23.90;;;21.13;;
15194;SDS011;7698;42.478;23.756;2023-01-08T01:12:36;26.07;;;23.47;;
15194;SDS011;7698;42.478;23.756;2023-01-08T01:15:04;30.27;;;27.07;;
15194;SDS011;7698;42.478;23.756;2023-01-08T01:17:32;28.17;;;25.33;;
15194;SDS011;7698;42.478;23.756;2023-01-08T01:19:59;26.87;;;24.13;;
15194;SDS011;7698;42.478;23.756;2023-01-08T01:22:26;25.57;;;23.00;;
15194;SDS011;7698;42.478;23.756;2023-01-08T01:24:53;23.97;;;21.47;;
15194;SDS011;7698;42.478;23.756;2023-01-08T01:27:21;24.30;;;21.77;;
15194;SDS011;7698;42.478;23.756;2023-01-08T01:29:48;21.97;;;19.67;;
15194;SDS011;7698;42.478;23.756;2023-01-08T01:32:14;23.13;;;20.67;;
15194;SDS011;7698;42.478;23.756;2023-01-08T01:34:41;22.53;;;20.27;;
15194;SDS011;7698;42.478;23.756;2023-01-08T01:37:09;22.23;;;19.03;;
15194;SDS011;7698;42.478;23.756;2023-01-08T01:39:37;22.80;;;20.47;;
15194;SDS011;7698;42.478;23.756;2023-01-08T01:42:04;19.50;;;17.60;;
15194;SDS011;7698;42.478;23.756;2023-01-08T01:44:36;21.63;;;19.30;;
15194;SDS011;7698;42.478;23.756;2023-01-08T01:47:08;16.73;;;15.13;;
15194;SDS011;7698;42.478;23.756;2023-01-08T01:49:39;20.03;;;18.03;;
15194;SDS011;7698;42.478;23.756;2023-01-08T01:52:13;28.07;;;25.10;;
15194;SDS011;7698;42.478;23.756;2023-01-08T01:54:40;29.60;;;26.13;;
15194;SDS011;7698;42.478;23.756;2023-01-08T01:57:07;30.47;;;27.17;;
15194;SDS011;7698;42.478;23.756;2023-01-08T01:59:36;33.07;;;29.53;;
15194;SDS011;7698;42.478;23.756;2023-01-08T02:02:03;42.73;;;35.23;;
15194;SDS011;7698;42.478;23.756;2023-01-08T02:04:30;47.80;;;38.27;;
15194;SDS011;7698;42.478;23.756;2023-01-08T02:06:59;44.87;;;39.53;;
15194;SDS011;7698;42.478;23.756;2023-01-08T02:09:37;46.50;;;40.60;;
15194;SDS011;7698;42.478;23.756;2023-01-08T02:12:09;37.73;;;33.73;;
15194;SDS011;7698;42.478;23.756;2023-01-08T02:14:52;38.80;;;34.70;;
15194;SDS011;7698;42.478;23.756;2023-01-08T02:17:27;36.70;;;32.80;;
15194;SDS011;7698;42.478;23.756;2023-01-08T02:20:05;34.03;;;30.43;;
15194;SDS011;7698;42.478;23.756;2023-01-08T02:22:41;37.40;;;33.47;;
15194;SDS011;7698;42.478;23.756;2023-01-08T02:25:15;32.87;;;28.57;;
15194;SDS011;7698;42.478;23.756;2023-01-08T02:27:51;31.00;;;27.53;;
15194;SDS011;7698;42.478;23.756;2023-01-08T02:30:20;31.23;;;27.87;;
15194;SDS011;7698;42.478;23.756;2023-01-08T02:32:47;27.73;;;24.73;;
15194;SDS011;7698;42.478;23.756;2023-01-08T02:35:13;24.97;;;22.27;;
15194;SDS011;7698;42.478;23.756;2023-01-08T02:37:40;24.43;;;21.87;;
15194;SDS011;7698;42.478;23.756;2023-01-08T02:40:18;23.40;;;21.00;;
15194;SDS011;7698;42.478;23.756;2023-01-08T02:42:54;24.07;;;21.57;;
15194;SDS011;7698;42.478;23.756;2023-01-08T02:45:25;28.37;;;25.37;;
15194;SDS011;7698;42.478;23.756;2023-01-08T02:48:01;25.87;;;23.17;;
15194;SDS011;7698;42.478;23.756;2023-01-08T02:50:35;27.57;;;23.13;;
15194;SDS011;7698;42.478;23.756;2023-01-08T02:53:08;28.83;;;25.77;;
15194;SDS011;7698;42.478;23.756;2023-01-08T02:55:39;29.53;;;26.37;;
15194;SDS011;7698;42.478;23.756;2023-01-08T02:58:11;26.17;;;23.43;;
15194;SDS011;7698;42.478;23.756;2023-01-08T03:00:39;20.70;;;18.60;;
15194;SDS011;7698;42.478;23.756;2023-01-08T03:03:09;20.97;;;18.77;;
15194;SDS011;7698;42.478;23.756;2023-01-08T03:05:40;20.37;;;18.27;;
15194;SDS011;7698;42.478;23.756;2023-01-08T03:08:13;22.43;;;19.70;;
15194;SDS011;7698;42.478;23.756;2023-01-08T03:10:40;22.10;;;19.77;;
15194;SDS011;7698;42.478;23.756;2023-01-08T03:13:10;23.53;;;21.00;;
15194;SDS011;7698;42.478;23.756;2023-01-08T03:15:44;21.83;;;18.80;;
15194;SDS011;7698;42.478;23.756;2023-01-08T03:18:14;24.20;;;19.87;;
15194;SDS011;7698;42.478;23.756;2023-01-08T03:20:45;26.17;;;22.80;;
15194;SDS011;7698;42.478;23.756;2023-01-08T03:23:14;23.97;;;19.87;;
15194;SDS011;7698;42.478;23.756;2023-01-08T03:25:43;41.40;;;28.77;;
15194;SDS011;7698;42.478;23.756;2023-01-08T03:28:14;31.93;;;23.90;;
15194;SDS011;7698;42.478;23.756;2023-01-08T03:30:45;31.17;;;23.77;;
15194;SDS011;7698;42.478;23.756;2023-01-08T03:33:14;30.70;;;23.37;;
15194;SDS011;7698;42.478;23.756;2023-01-08T03:35:43;25.97;;;21.83;;
15194;SDS011;7698;42.478;23.756;2023-01-08T03:38:17;28.20;;;21.60;;
15194;SDS011;7698;42.478;23.756;2023-01-08T03:40:47;26.33;;;20.67;;
15194;SDS011;7698;42.478;23.756;2023-01-08T03:43:18;19.43;;;16.03;;
15194;SDS011;7698;42.478;23.756;2023-01-08T03:45:48;16.97;;;14.83;;
15194;SDS011;7698;42.478;23.756;2023-01-08T03:48:18;13.83;;;11.77;;
15194;SDS011;7698;42.478;23.756;2023-01-08T03:50:46;12.33;;;10.20;;
15194;SDS011;7698;42.478;23.756;2023-01-08T03:53:13;11.23;;;9.27;;
15194;SDS011;7698;42.478;23.756;2023-01-08T03:55:40;8.17;;;7.27;;
15194;SDS011;7698;42.478;23.756;2023-01-08T03:58:07;8.40;;;6.83;;
15194;SDS011;7698;42.478;23.756;2023-01-08T04:00:35;7.60;;;6.33;;
15194;SDS011;7698;42.478;23.756;2023-01-08T04:03:02;7.43;;;6.60;;
15194;SDS011;7698;42.478;23.756;2023-01-08T04:05:29;7.47;;;6.77;;
15194;SDS011;7698;42.478;23.756;2023-01-08T04:07:56;8.07;;;7.13;;
15194;SDS011;7698;42.478;23.756;2023-01-08T04:10:23;9.47;;;8.50;;
15194;SDS011;7698;42.478;23.756;2023-01-08T04:12:50;8.73;;;7.80;;
15194;SDS011;7698;42.478;23.756;2023-01-08T04:15:17;7.67;;;6.23;;
15194;SDS011;7698;42.478;23.756;2023-01-08T04:17:46;7.63;;;6.83;;
15194;SDS011;7698;42.478;23.756;2023-01-08T04:20:13;9.37;;;8.27;;
15194;SDS011;7698;42.478;23.756;2023-01-08T04:22:40;12.40;;;9.90;;
15194;SDS011;7698;42.478;23.756;2023-01-08T04:25:07;13.73;;;11.50;;
15194;SDS011;7698;42.478;23.756;2023-01-08T04:27:34;14.47;;;12.97;;
15194;SDS011;7698;42.478;23.756;2023-01-08T04:30:01;16.77;;;14.77;;
15194;SDS011;7698;42.478;23.756;2023-01-08T04:32:28;18.67;;;15.77;;
15194;SDS011;7698;42.478;23.756;2023-01-08T04:34:56;18.23;;;16.20;;
15194;SDS011;7698;42.478;23.756;2023-01-08T04:37:23;18.73;;;15.83;;
15194;SDS011;7698;42.478;23.756;2023-01-08T04:39:50;16.87;;;15.07;;
15194;SDS011;7698;42.478;23.756;2023-01-08T04:42:17;16.20;;;14.50;;
15194;SDS011;7698;42.478;23.756;2023-01-08T04:44:44;18.20;;;15.33;;
15194;SDS011;7698;42.478;23.756;2023-01-08T04:47:10;15.97;;;14.27;;
15194;SDS011;7698;42.478;23.756;2023-01-08T04:49:37;19.33;;;17.23;;
15194;SDS011;7698;42.478;23.756;2023-01-08T04:52:05;19.33;;;17.33;;
15194;SDS011;7698;42.478;23.756;2023-01-08T04:54:32;19.00;;;17.00;;
15194;SDS011;7698;42.478;23.756;2023-01-08T04:56:59;18.20;;;16.07;;
15194;SDS011;7698;42.478;23.756;2023-01-08T04:59:25;18.23;;;16.07;;
15194;SDS011;7698;42.478;23.756;2023-01-08T05:01:52;18.27;;;16.03;;
15194;SDS011;7698;42.478;23.756;2023-01-08T05:04:20;17.33;;;15.50;;
15194;SDS011;7698;42.478;23.756;2023-01-08T05:06:47;16.40;;;14.80;;
15194;SDS011;7698;42.478;23.756;2023-01-08T05:09:15;17.30;;;15.47;;
15194;SDS011;7698;42.478;23.756;2023-01-08T05:11:42;18.23;;;16.43;;
15194;SDS011;7698;42.478;23.756;2023-01-08T05:14:09;18.30;;;16.10;;
15194;SDS011;7698;42.478;23.756;2023-01-08T05:16:36;17.27;;;15.23;;
15194;SDS011;7698;42.478;23.756;2023-01-08T05:19:03;17.37;;;15.57;;
15194;SDS011;7698;42.478;23.756;2023-01-08T05:21:30;18.63;;;16.27;;
15194;SDS011;7698;42.478;23.756;2023-01-08T05:23:56;21.40;;;19.13;;
15194;SDS011;7698;42.478;23.756;2023-01-08T05:26:25;18.87;;;17.00;;
15194;SDS011;7698;42.478;23.756;2023-01-08T05:28:51;19.83;;;17.03;;
15194;SDS011;7698;42.478;23.756;2023-01-08T05:31:18;18.57;;;16.57;;
15194;SDS011;7698;42.478;23.756;2023-01-08T05:33:45;19.37;;;16.43;;
15194;SDS011;7698;42.478;23.756;2023-01-08T05:36:12;21.73;;;19.07;;
15194;SDS011;7698;42.478;23.756;2023-01-08T05:38:39;24.67;;;17.67;;
15194;SDS011;7698;42.478;23.756;2023-01-08T05:41:06;20.43;;;16.87;;
15194;SDS011;7698;42.478;23.756;2023-01-08T05:43:35;17.63;;;14.10;;
15194;SDS011;7698;42.478;23.756;2023-01-08T05:46:02;15.50;;;13.57;;
15194;SDS011;7698;42.478;23.756;2023-01-08T05:48:31;15.80;;;13.93;;
15194;SDS011;7698;42.478;23.756;2023-01-08T05:50:59;18.30;;;14.57;;
15194;SDS011;7698;42.478;23.756;2023-01-08T05:53:26;21.10;;;18.10;;
15194;SDS011;7698;42.478;23.756;2023-01-08T05:55:59;23.87;;;19.57;;
15194;SDS011;7698;42.478;23.756;2023-01-08T05:58:27;19.87;;;16.03;;
15194;SDS011;7698;42.478;23.756;2023-01-08T06:00:59;23.83;;;18.87;;
15194;SDS011;7698;42.478;23.756;2023-01-08T06:03:27;20.73;;;17.97;;
15194;SDS011;7698;42.478;23.756;2023-01-08T06:05:56;20.70;;;17.67;;
15194;SDS011;7698;42.478;23.756;2023-01-08T06:08:23;21.90;;;18.40;;
15194;SDS011;7698;42.478;23.756;2023-01-08T06:10:50;18.20;;;16.20;;
15194;SDS011;7698;42.478;23.756;2023-01-08T06:13:17;15.90;;;14.20;;
15194;SDS011;7698;42.478;23.756;2023-01-08T06:15:44;16.57;;;14.13;;
15194;SDS011;7698;42.478;23.756;2023-01-08T06:18:12;16.57;;;13.53;;
15194;SDS011;7698;42.478;23.756;2023-01-08T06:20:39;20.37;;;16.63;;
15194;SDS011;7698;42.478;23.756;2023-01-08T06:23:06;18.30;;;16.10;;
15194;SDS011;7698;42.478;23.756;2023-01-08T06:25:33;12.87;;;11.47;;
15194;SDS011;7698;42.478;23.756;2023-01-08T06:28:00;11.43;;;10.33;;
15194;SDS011;7698;42.478;23.756;2023-01-08T06:30:27;15.90;;;13.80;;
15194;SDS011;7698;42.478;23.756;2023-01-08T06:32:54;16.00;;;14.35;;
15194;SDS011;7698;42.478;23.756;2023-01-08T06:35:23;16.15;;;13.88;;
15194;SDS011;7698;42.478;23.756;2023-01-08T06:37:50;14.65;;;13.10;;
15194;SDS011;7698;42.478;23.756;2023-01-08T06:40:17;13.30;;;11.98;;
15194;SDS011;7698;42.478;23.756;2023-01-08T06:42:44;14.57;;;13.07;;
15194;SDS011;7698;42.478;23.756;2023-01-08T06:45:11;16.50;;;14.75;;
15194;SDS011;7698;42.478;23.756;2023-01-08T06:47:38;14.55;;;13.15;;
15194;SDS011;7698;42.478;23.756;2023-01-08T06:50:05;14.63;;;13.05;;
15194;SDS011;7698;42.478;23.756;2023-01-08T06:52:34;12.95;;;11.65;;
15194;SDS011;7698;42.478;23.756;2023-01-08T06:55:01;13.15;;;11.80;;
15194;SDS011;7698;42.478;23.756;2023-01-08T06:57:29;13.32;;;11.88;;
15194;SDS011;7698;42.478;23.756;2023-01-08T06:59:55;11.95;;;10.68;;
15194;SDS011;7698;42.478;23.756;2023-01-08T07:02:22;12.80;;;11.55;;
15194;SDS011;7698;42.478;23.756;2023-01-08T07:04:49;13.93;;;12.57;;
15194;SDS011;7698;42.478;23.756;2023-01-08T07:07:16;14.85;;;13.10;;
15194;SDS011;7698;42.478;23.756;2023-01-08T07:09:44;13.38;;;11.98;;
15194;SDS011;7698;42.478;23.756;2023-01-08T07:12:11;11.55;;;10.45;;
15194;SDS011;7698;42.478;23.756;2023-01-08T07:14:39;9.88;;;8.98;;
15194;SDS011;7698;42.478;23.756;2023-01-08T07:17:06;10.85;;;9.88;;
15194;SDS011;7698;42.478;23.756;2023-01-08T07:19:33;8.48;;;7.78;;
15194;SDS011;7698;42.478;23.756;2023-01-08T07:22:00;7.68;;;7.00;;
15194;SDS011;7698;42.478;23.756;2023-01-08T07:24:27;7.88;;;7.18;;
15194;SDS011;7698;42.478;23.756;2023-01-08T07:26:55;8.65;;;7.85;;
15194;SDS011;7698;42.478;23.756;2023-01-08T07:29:23;9.65;;;8.73;;
15194;SDS011;7698;42.478;23.756;2023-01-08T07:31:50;9.75;;;8.85;;
15194;SDS011;7698;42.478;23.756;2023-01-08T07:34:17;10.43;;;9.43;;
15194;SDS011;7698;42.478;23.756;2023-01-08T07:36:44;11.13;;;10.02;;
15194;SDS011;7698;42.478;23.756;2023-01-08T07:39:11;9.32;;;8.48;;
15194;SDS011;7698;42.478;23.756;2023-01-08T07:41:39;9.65;;;8.18;;
15194;SDS011;7698;42.478;23.756;2023-01-08T07:44:08;9.40;;;8.50;;
15194;SDS011;7698;42.478;23.756;2023-01-08T07:46:35;8.73;;;7.82;;
15194;SDS011;7698;42.478;23.756;2023-01-08T07:49:02;9.63;;;8.73;;
15194;SDS011;7698;42.478;23.756;2023-01-08T07:51:30;9.38;;;8.52;;
15194;SDS011;7698;42.478;23.756;2023-01-08T07:53:57;10.07;;;9.10;;
15194;SDS011;7698;42.478;23.756;2023-01-08T07:56:24;10.30;;;9.30;;
15194;SDS011;7698;42.478;23.756;2023-01-08T07:58:51;11.77;;;10.63;;
15194;SDS011;7698;42.478;23.756;2023-01-08T08:01:19;12.05;;;10.85;;
15194;SDS011;7698;42.478;23.756;2023-01-08T08:03:46;9.85;;;8.98;;
15194;SDS011;7698;42.478;23.756;2023-01-08T08:06:13;9.88;;;8.88;;
15194;SDS011;7698;42.478;23.756;2023-01-08T08:08:40;9.05;;;8.15;;
15194;SDS011;7698;42.478;23.756;2023-01-08T08:11:07;12.27;;;10.02;;
15194;SDS011;7698;42.478;23.756;2023-01-08T08:13:33;10.82;;;9.73;;
15194;SDS011;7698;42.478;23.756;2023-01-08T08:16:01;8.82;;;7.93;;
15194;SDS011;7698;42.478;23.756;2023-01-08T08:18:29;9.48;;;8.57;;
15194;SDS011;7698;42.478;23.756;2023-01-08T08:20:56;10.43;;;9.40;;
15194;SDS011;7698;42.478;23.756;2023-01-08T08:23:24;9.90;;;8.77;;
15194;SDS011;7698;42.478;23.756;2023-01-08T08:25:51;9.05;;;8.15;;
15194;SDS011;7698;42.478;23.756;2023-01-08T08:28:19;9.98;;;9.00;;
15194;SDS011;7698;42.478;23.756;2023-01-08T08:30:46;8.15;;;7.45;;
15194;SDS011;7698;42.478;23.756;2023-01-08T08:33:13;8.68;;;7.85;;
15194;SDS011;7698;42.478;23.756;2023-01-08T08:35:46;8.40;;;7.60;;
15194;SDS011;7698;42.478;23.756;2023-01-08T08:38:15;9.20;;;8.30;;
15194;SDS011;7698;42.478;23.756;2023-01-08T08:40:42;9.77;;;8.88;;
15194;SDS011;7698;42.478;23.756;2023-01-08T08:43:09;10.07;;;9.10;;
15194;SDS011;7698;42.478;23.756;2023-01-08T08:45:36;10.32;;;9.25;;
15194;SDS011;7698;42.478;23.756;2023-01-08T08:48:04;11.13;;;10.13;;
15194;SDS011;7698;42.478;23.756;2023-01-08T08:50:33;10.40;;;9.23;;
15194;SDS011;7698;42.478;23.756;2023-01-08T08:53:03;9.73;;;8.80;;
15194;SDS011;7698;42.478;23.756;2023-01-08T08:55:31;10.52;;;9.52;;
15194;SDS011;7698;42.478;23.756;2023-01-08T08:58:03;9.43;;;8.43;;
15194;SDS011;7698;42.478;23.756;2023-01-08T09:00:31;12.18;;;11.07;;
15194;SDS011;7698;42.478;23.756;2023-01-08T09:02:59;9.70;;;8.82;;
15194;SDS011;7698;42.478;23.756;2023-01-08T09:05:26;10.60;;;9.70;;
15194;SDS011;7698;42.478;23.756;2023-01-08T09:07:54;12.40;;;11.30;;
15194;SDS011;7698;42.478;23.756;2023-01-08T09:10:23;11.07;;;10.07;;
15194;SDS011;7698;42.478;23.756;2023-01-08T09:12:51;10.23;;;9.30;;
15194;SDS011;7698;42.478;23.756;2023-01-08T09:15:19;11.52;;;10.52;;
15194;SDS011;7698;42.478;23.756;2023-01-08T09:17:51;12.23;;;11.13;;
15194;SDS011;7698;42.478;23.756;2023-01-08T09:20:18;11.10;;;10.05;;
15194;SDS011;7698;42.478;23.756;2023-01-08T09:22:45;10.38;;;9.48;;
15194;SDS011;7698;42.478;23.756;2023-01-08T09:25:13;9.80;;;9.00;;
15194;SDS011;7698;42.478;23.756;2023-01-08T09:27:41;10.90;;;10.00;;
15194;SDS011;7698;42.478;23.756;2023-01-08T09:30:09;9.55;;;8.63;;
15194;SDS011;7698;42.478;23.756;2023-01-08T09:32:37;9.10;;;8.27;;
15194;SDS011;7698;42.478;23.756;2023-01-08T09:35:04;10.07;;;9.20;;
15194;SDS011;7698;42.478;23.756;2023-01-08T09:37:31;9.95;;;9.05;;
15194;SDS011;7698;42.478;23.756;2023-01-08T09:39:58;9.65;;;8.85;;
15194;SDS011;7698;42.478;23.756;2023-01-08T09:42:25;10.63;;;9.38;;
15194;SDS011;7698;42.478;23.756;2023-01-08T09:44:55;9.48;;;8.52;;
15194;SDS011;7698;42.478;23.756;2023-01-08T09:47:25;9.77;;;8.88;;
15194;SDS011;7698;42.478;23.756;2023-01-08T09:49:56;7.85;;;7.20;;
15194;SDS011;7698;42.478;23.756;2023-01-08T09:52:26;8.25;;;7.45;;
15194;SDS011;7698;42.478;23.756;2023-01-08T09:54:55;9.98;;;8.93;;
15194;SDS011;7698;42.478;23.756;2023-01-08T09:57:22;9.38;;;8.07;;
15194;SDS011;7698;42.478;23.756;2023-01-08T09:59:49;9.02;;;8.15;;
15194;SDS011;7698;42.478;23.756;2023-01-08T10:02:18;8.60;;;7.78;;
15194;SDS011;7698;42.478;23.756;2023-01-08T10:04:47;9.07;;;8.13;;
15194;SDS011;7698;42.478;23.756;2023-01-08T10:07:19;9.32;;;8.52;;
15194;SDS011;7698;42.478;23.756;2023-01-08T10:09:48;8.80;;;7.97;;
15194;SDS011;7698;42.478;23.756;2023-01-08T10:12:17;10.93;;;9.02;;
15194;SDS011;7698;42.478;23.756;2023-01-08T10:14:51;8.20;;;7.45;;
15194;SDS011;7698;42.478;23.756;2023-01-08T10:17:25;9.07;;;8.18;;
15194;SDS011;7698;42.478;23.756;2023-01-08T10:19:53;8.40;;;7.60;;
15194;SDS011;7698;42.478;23.756;2023-01-08T10:22:20;9.30;;;8.40;;
15194;SDS011;7698;42.478;23.756;2023-01-08T10:24:50;9.68;;;8.88;;
15194;SDS011;7698;42.478;23.756;2023-01-08T10:27:18;11.73;;;10.63;;
15194;SDS011;7698;42.478;23.756;2023-01-08T10:29:48;10.85;;;9.82;;
15194;SDS011;7698;42.478;23.756;2023-01-08T10:32:16;10.25;;;9.32;;
15194;SDS011;7698;42.478;23.756;2023-01-08T10:34:48;10.02;;;9.15;;
15194;SDS011;7698;42.478;23.756;2023-01-08T10:37:21;12.05;;;11.00;;
15194;SDS011;7698;42.478;23.756;2023-01-08T10:39:51;10.45;;;9.35;;
15194;SDS011;7698;42.478;23.756;2023-01-08T10:42:20;10.77;;;9.77;;
15194;SDS011;7698;42.478;23.756;2023-01-08T10:44:55;10.00;;;9.10;;
15194;SDS011;7698;42.478;23.756;2023-01-08T10:47:25;9.98;;;8.98;;
15194;SDS011;7698;42.478;23.756;2023-01-08T10:49:56;10.93;;;9.85;;
15194;SDS011;7698;42.478;23.756;2023-01-08T10:52:26;10.98;;;9.95;;
15194;SDS011;7698;42.478;23.756;2023-01-08T10:54:57;9.57;;;8.57;;
15194;SDS011;7698;42.478;23.756;2023-01-08T10:57:38;9.48;;;7.45;;
15194;SDS011;7698;42.478;23.756;2023-01-08T11:00:20;8.55;;;7.75;;
15194;SDS011;7698;42.478;23.756;2023-01-08T11:02:49;7.88;;;7.18;;
15194;SDS011;7698;42.478;23.756;2023-01-08T11:05:17;8.55;;;7.75;;
15194;SDS011;7698;42.478;23.756;2023-01-08T11:07:47;6.63;;;6.03;;
15194;SDS011;7698;42.478;23.756;2023-01-08T11:10:20;6.10;;;5.45;;
15194;SDS011;7698;42.478;23.756;2023-01-08T11:12:53;5.35;;;4.85;;
15194;SDS011;7698;42.478;23.756;2023-01-08T11:15:31;6.45;;;5.68;;
15194;SDS011;7698;42.478;23.756;2023-01-08T11:18:05;4.10;;;3.70;;
15194;SDS011;7698;42.478;23.756;2023-01-08T11:20:41;6.95;;;3.92;;
15194;SDS011;7698;42.478;23.756;2023-01-08T11:23:12;3.83;;;3.42;;
15194;SDS011;7698;42.478;23.756;2023-01-08T11:25:43;4.63;;;3.90;;
15194;SDS011;7698;42.478;23.756;2023-01-08T11:28:14;5.03;;;4.53;;
15194;SDS011;7698;42.478;23.756;2023-01-08T11:30:49;4.65;;;3.65;;
15194;SDS011;7698;42.478;23.756;2023-01-08T11:33:24;5.28;;;4.60;;
15194;SDS011;7698;42.478;23.756;2023-01-08T11:35:59;4.47;;;4.05;;
15194;SDS011;7698;42.478;23.756;2023-01-08T11:38:33;3.35;;;3.05;;
15194;SDS011;7698;42.478;23.756;2023-01-08T11:41:03;3.92;;;3.40;;
15194;SDS011;7698;42.478;23.756;2023-01-08T11:43:43;4.40;;;3.85;;
15194;SDS011;7698;42.478;23.756;2023-01-08T11:46:26;4.50;;;4.10;;
15194;SDS011;7698;42.478;23.756;2023-01-08T11:49:08;4.80;;;4.40;;
15194;SDS011;7698;42.478;23.756;2023-01-08T11:51:57;5.00;;;4.47;;
15194;SDS011;7698;42.478;23.756;2023-01-08T11:54:42;4.80;;;4.40;;
15194;SDS011;7698;42.478;23.756;2023-01-08T11:57:25;5.50;;;5.00;;
15194;SDS011;7698;42.478;23.756;2023-01-08T12:00:07;6.25;;;5.65;;
15194;SDS011;7698;42.478;23.756;2023-01-08T12:02:49;8.10;;;7.38;;
15194;SDS011;7698;42.478;23.756;2023-01-08T12:08:15;7.75;;;6.80;;
15194;SDS011;7698;42.478;23.756;2023-01-08T12:10:53;7.80;;;7.10;;
15194;SDS011;7698;42.478;23.756;2023-01-08T12:13:30;7.47;;;6.68;;
15194;SDS011;7698;42.478;23.756;2023-01-08T12:16:18;6.50;;;4.65;;
15194;SDS011;7698;42.478;23.756;2023-01-08T12:19:02;4.35;;;3.95;;
15194;SDS011;7698;42.478;23.756;2023-01-08T12:21:42;4.95;;;4.45;;
15194;SDS011;7698;42.478;23.756;2023-01-08T12:24:24;5.63;;;4.78;;
15194;SDS011;7698;42.478;23.756;2023-01-08T12:27:11;6.20;;;5.05;;
15194;SDS011;7698;42.478;23.756;2023-01-08T12:29:54;6.60;;;4.68;;
15194;SDS011;7698;42.478;23.756;2023-01-08T12:32:32;6.95;;;5.22;;
15194;SDS011;7698;42.478;23.756;2023-01-08T12:35:04;5.75;;;5.00;;
15194;SDS011;7698;42.478;23.756;2023-01-08T12:37:38;10.55;;;4.40;;
15194;SDS011;7698;42.478;23.756;2023-01-08T12:40:15;5.05;;;3.92;;
15194;SDS011;7698;42.478;23.756;2023-01-08T12:42:45;4.22;;;3.83;;
15194;SDS011;7698;42.478;23.756;2023-01-08T12:45:15;5.68;;;4.63;;
15194;SDS011;7698;42.478;23.756;2023-01-08T12:47:45;5.70;;;4.72;;
15194;SDS011;7698;42.478;23.756;2023-01-08T12:50:24;6.70;;;4.72;;
15194;SDS011;7698;42.478;23.756;2023-01-08T12:53:01;4.53;;;3.95;;
15194;SDS011;7698;42.478;23.756;2023-01-08T12:55:38;4.72;;;3.85;;
15194;SDS011;7698;42.478;23.756;2023-01-08T12:58:15;5.82;;;4.63;;
15194;SDS011;7698;42.478;23.756;2023-01-08T13:00:50;4.40;;;4.00;;
15194;SDS011;7698;42.478;23.756;2023-01-08T13:03:25;4.88;;;4.38;;
15194;SDS011;7698;42.478;23.756;2023-01-08T13:06:03;4.13;;;3.75;;
15194;SDS011;7698;42.478;23.756;2023-01-08T13:08:33;4.43;;;3.85;;
15194;SDS011;7698;42.478;23.756;2023-01-08T13:11:03;4.82;;;4.28;;
15194;SDS011;7698;42.478;23.756;2023-01-08T13:13:31;4.72;;;4.32;;
15194;SDS011;7698;42.478;23.756;2023-01-08T13:16:07;7.65;;;4.80;;
15194;SDS011;7698;42.478;23.756;2023-01-08T13:18:50;19.00;;;15.25;;
15194;SDS011;7698;42.478;23.756;2023-01-08T13:21:25;6.00;;;5.40;;
15194;SDS011;7698;42.478;23.756;2023-01-08T13:23:58;16.83;;;13.82;;
15194;SDS011;7698;42.478;23.756;2023-01-08T13:26:29;35.58;;;32.22;;
15194;SDS011;7698;42.478;23.756;2023-01-08T13:29:04;8.77;;;7.93;;
15194;SDS011;7698;42.478;23.756;2023-01-08T13:31:37;16.60;;;14.80;;
15194;SDS011;7698;42.478;23.756;2023-01-08T13:34:17;34.22;;;30.73;;
15194;SDS011;7698;42.478;23.756;2023-01-08T13:36:59;7.95;;;7.15;;
15194;SDS011;7698;42.478;23.756;2023-01-08T13:39:31;21.50;;;19.70;;
15194;SDS011;7698;42.478;23.756;2023-01-08T13:42:02;34.35;;;30.67;;
15194;SDS011;7698;42.478;23.756;2023-01-08T13:44:46;38.03;;;33.88;;
15194;SDS011;7698;42.478;23.756;2023-01-08T13:47:17;33.65;;;28.08;;
15194;SDS011;7698;42.478;23.756;2023-01-08T13:49:48;14.85;;;13.27;;
15194;SDS011;7698;42.478;23.756;2023-01-08T13:52:28;48.33;;;40.95;;
15194;SDS011;7698;42.478;23.756;2023-01-08T13:55:02;30.65;;;27.77;;
15194;SDS011;7698;42.478;23.756;2023-01-08T13:57:35;24.65;;;22.30;;
15194;SDS011;7698;42.478;23.756;2023-01-08T14:00:05;44.05;;;39.40;;
15194;SDS011;7698;42.478;23.756;2023-01-08T14:02:41;13.45;;;12.15;;
15194;SDS011;7698;42.478;23.756;2023-01-08T14:05:18;21.67;;;19.48;;
15194;SDS011;7698;42.478;23.756;2023-01-08T14:07:50;26.75;;;23.88;;
15194;SDS011;7698;42.478;23.756;2023-01-08T14:10:18;26.20;;;23.58;;
15194;SDS011;7698;42.478;23.756;2023-01-08T14:12:47;20.52;;;18.55;;
15194;SDS011;7698;42.478;23.756;2023-01-08T14:15:20;14.68;;;13.18;;
15194;SDS011;7698;42.478;23.756;2023-01-08T14:17:50;18.67;;;16.80;;
15194;SDS011;7698;42.478;23.756;2023-01-08T14:20:29;7.22;;;6.53;;
15194;SDS011;7698;42.478;23.756;2023-01-08T14:22:58;10.93;;;9.95;;
15194;SDS011;7698;42.478;23.756;2023-01-08T14:25:26;6.18;;;5.10;;
15194;SDS011;7698;42.478;23.756;2023-01-08T14:27:57;6.45;;;5.85;;
15194;SDS011;7698;42.478;23.756;2023-01-08T14:30:26;6.07;;;4.03;;
15194;SDS011;7698;42.478;23.756;2023-01-08T14:32:53;5.10;;;3.55;;
15194;SDS011;7698;42.478;23.756;2023-01-08T14:35:25;4.22;;;3.83;;
15194;SDS011;7698;42.478;23.756;2023-01-08T14:37:57;4.07;;;3.67;;
15194;SDS011;7698;42.478;23.756;2023-01-08T14:40:29;4.00;;;3.20;;
15194;SDS011;7698;42.478;23.756;2023-01-08T14:43:01;3.90;;;3.50;;
15194;SDS011;7698;42.478;23.756;2023-01-08T14:45:33;3.45;;;3.03;;
15194;SDS011;7698;42.478;23.756;2023-01-08T14:48:07;4.00;;;3.70;;
15194;SDS011;7698;42.478;23.756;2023-01-08T14:50:37;3.75;;;3.40;;